• Join FlightAware (Why Join?)
  • Login
  • US Flag 
Rudolph Flight #1: Arrived! 
09:47AM EST


 

Airport Tracker/Info


-or-


 

Live Flight TrackerFlight Track Log ✈ VH-BGX ✈ 27-May-2013 ✈ YBCG / OOL - YBAF

Flight Track Log - Related Links

Times and Time Zones

All times are in EDT time to prevent confusion due to time zone crossing. See the VH-BGX flight status page for this flight to view local times or setup timezone preferences in your user account.

Time Position Orientation Groundspeed Altitude Reporting Facility
EDT Latitude Longitude Course Direction KTS MPH feet Rate Location/Type
11:43PM -28.1694 153.5090 184° South 70 81 300  Level Aus ATC (RADAR)
11:43PM -28.1827 153.5080 184° South 76 87 700 480 Climbing Aus ATC (RADAR)
11:44PM -28.1731 153.4937 307° West 97 112 1,000 420 Climbing Aus ATC (RADAR)
11:45PM -28.1540 153.4831 334° Northwest 101 116 1,300 480 Climbing Aus ATC (RADAR)
11:45PM -28.1436 153.4774 334° Northwest 99 114 1,600 480 Climbing Aus ATC (RADAR)
11:46PM -28.1290 153.4690 333° Northwest 100 115 1,800 300 Climbing Aus ATC (RADAR)
11:47PM -28.0942 153.4489 333° Northwest 113 130 2,200 240 Climbing Aus ATC (RADAR)
11:47PM -28.0825 153.4422 333° Northwest 113 130 2,200 300 Level Aus ATC (RADAR)
11:48PM -28.0669 153.4316 329° Northwest 110 127 2,500 480 Climbing Aus ATC (RADAR)
11:49PM -28.0456 153.4166 328° Northwest 108 124 2,900 420 Climbing Aus ATC (RADAR)
11:49PM -28.0301 153.4053 327° Northwest 112 129 3,100 300 Climbing Aus ATC (RADAR)
11:50PM -28.0110 153.3910 327° Northwest 109 125 3,300 240 Climbing Aus ATC (RADAR)
11:51PM -28.0010 153.3823 322° Northwest 107 123 3,400 360 Climbing Aus ATC (RADAR)
11:52PM -27.9742 153.3608 325° Northwest 108 124 3,900 300 Climbing Aus ATC (RADAR)
11:52PM -27.9655 153.3547 328° Northwest 109 125 3,900 120 Level Aus ATC (RADAR)
11:52PM -27.9513 153.3464 332° Northwest 112 129 4,000 180 Climbing Aus ATC (RADAR)
11:53PM -27.9337 153.3372 335° Northwest 117 135 4,100 -120 Climbing Aus ATC (RADAR)
11:54PM -27.9095 153.3268 339° North 124 143 3,900 -120 Descending Aus ATC (RADAR)
11:54PM -27.8915 153.3177 336° Northwest 120 138 4,000 60 Climbing Aus ATC (RADAR)
11:55PM -27.8682 153.3065 337° Northwest 121 139 4,000  Level Aus ATC (RADAR)
11:55PM -27.8553 153.3004 337° Northwest 119 137 4,000  Level Aus ATC (RADAR)
11:56PM -27.8220 153.2878 341° North 125 144 4,000  Level Aus ATC (RADAR)
11:57PM -27.8093 153.2817 337° Northwest 120 138 4,000  Level Aus ATC (RADAR)
11:57PM -27.7965 153.2747 334° Northwest 121 139 4,000 -120 Level Aus ATC (RADAR)
11:58PM -27.7775 153.2675 341° North 124 143 3,900  Descending Aus ATC (RADAR)
11:59PM -27.7567 153.2588 340° North 119 137 4,000 60 Climbing Aus ATC (RADAR)
11:59PM -27.7388 153.2496 336° Northwest 120 138 4,000 -120 Level Aus ATC (RADAR)
12:00AM -27.7158 153.2368 334° Northwest 121 139 3,900 -480 Descending Aus ATC (RADAR)
12:00AM -27.7031 153.2296 333° Northwest 122 140 3,500 -600 Descending Aus ATC (RADAR)
12:01AM -27.6842 153.2153 326° Northwest 122 140 3,300 -540 Descending Aus ATC (RADAR)
12:02AM -27.6570 153.1922 323° Northwest 122 140 2,600 -720 Descending Aus ATC (RADAR)
12:02AM -27.6448 153.1783 314° West 123 142 2,300 -600 Descending Aus ATC (RADAR)
12:03AM -27.6352 153.1622 304° West 122 140 2,000 -540 Descending Aus ATC (RADAR)
12:04AM -27.6202 153.1398 307° West 117 135 1,700 -420 Descending Aus ATC (RADAR)
12:04AM -27.6083 153.1226 308° West 119 137 1,500 -120 Descending Aus ATC (RADAR)
12:05AM -27.6043 153.0965 280° West 117 135 1,600  Climbing Aus ATC (RADAR)
12:05AM -27.6030 153.0811 275° West 117 135 1,500 -120 Descending Aus ATC (RADAR)
12:06AM -27.5997 153.0600 280° West 116 133 1,500  Level Aus ATC (RADAR)
12:06AM -27.5964 153.0506 291° West 124 143 1,500  Level Aus ATC (RADAR)
12:08AM -27.5796 153.0232 305° West  Level Estimated